Time;durP1;ratioP1;P1;durP2;ratioP2;P2;SDS_P1;SDS_P2;PMS_P1;PMS_P2;Temp;Humidity;BMP_temperature;BMP_pressure;BME280_temperature;BME280_humidity;BME280_pressure;Samples;Min_cycle;Max_cycle;Signal;HPM_P1;HPM_P2
2022/05/27 00:02:12;;;;;;;2.80;2.03;;;21.70;44.70;;;;;;5033918;28;20124;-72
2022/05/27 00:04:37;;;;;;;2.47;2.10;;;21.60;44.70;;;;;;5033712;28;20352;-72
2022/05/27 00:07:04;;;;;;;4.13;2.10;;;21.60;44.70;;;;;;5035009;28;20028;-75
2022/05/27 00:09:31;;;;;;;3.13;2.10;;;21.70;44.80;;;;;;5035410;28;20040;-72
2022/05/27 00:11:57;;;;;;;3.13;2.10;;;21.60;44.80;;;;;;5035052;28;20361;-73
2022/05/27 00:14:23;;;;;;;2.33;1.70;;;21.60;44.90;;;;;;5033729;28;20059;-74
2022/05/27 00:16:51;;;;;;;2.22;1.90;;;21.60;44.90;;;;;;5033940;28;20384;-74
2022/05/27 00:19:17;;;;;;;2.83;1.90;;;21.60;44.90;;;;;;5035448;28;20025;-75
2022/05/27 00:21:43;;;;;;;1.92;1.63;;;21.60;44.90;;;;;;5034995;28;20048;-70
2022/05/27 00:24:08;;;;;;;2.35;2.15;;;21.50;44.90;;;;;;5034593;28;20036;-68
2022/05/27 00:26:34;;;;;;;2.80;1.77;;;21.60;45.60;;;;;;5034573;28;20053;-65
2022/05/27 00:29:00;;;;;;;3.50;1.88;;;21.60;45.00;;;;;;5034574;28;20087;-67
2022/05/27 00:31:25;;;;;;;3.15;1.60;;;21.60;45.00;;;;;;5033159;28;20064;-70
2022/05/27 00:33:51;;;;;;;2.30;1.60;;;21.60;45.70;;;;;;5034810;28;20444;-66
2022/05/27 00:36:17;;;;;;;2.67;1.60;;;21.60;45.00;;;;;;5033607;28;20460;-67
2022/05/27 00:38:43;;;;;;;1.50;1.40;;;21.60;45.00;;;;;;5034753;28;20418;-67
2022/05/27 00:41:10;;;;;;;2.42;1.80;;;21.60;45.00;;;;;;5032946;28;20021;-67
2022/05/27 00:43:36;;;;;;;2.47;1.58;;;21.60;45.00;;;;;;5034411;28;20033;-68
2022/05/27 00:46:26;;;;;;;1.85;1.60;;;21.60;45.10;;;;;;5033444;28;20395;-72
2022/05/27 00:48:55;;;;;;;1.45;1.30;;;21.70;45.20;;;;;;5035244;28;20113;-69
2022/05/27 00:51:26;;;;;;;2.88;1.50;;;21.70;45.00;;;;;;5034308;28;20035;-70
2022/05/27 00:54:08;;;;;;;1.50;1.40;;;21.60;44.90;;;;;;5034979;28;20037;-68
2022/05/27 00:56:39;;;;;;;1.80;1.45;;;21.70;45.10;;;;;;5035568;28;20353;-75
2022/05/27 00:59:11;;;;;;;1.55;1.40;;;21.70;45.00;;;;;;5035565;28;20075;-73
2022/05/27 01:01:37;;;;;;;4.30;1.60;;;21.70;45.00;;;;;;5035170;28;20030;-73
2022/05/27 01:04:03;;;;;;;3.92;1.73;;;21.60;45.10;;;;;;5035090;28;20029;-75
2022/05/27 01:06:29;;;;;;;2.58;1.70;;;21.70;45.20;;;;;;5032579;28;20479;-74
2022/05/27 01:08:55;;;;;;;2.10;1.58;;;21.60;45.20;;;;;;5033523;28;20033;-74
2022/05/27 01:11:42;;;;;;;3.25;1.88;;;21.70;45.30;;;;;;5032346;28;20030;-74
2022/05/27 01:14:14;;;;;;;2.67;1.58;;;21.70;45.50;;;;;;5028550;28;20037;-75
2022/05/27 01:17:01;;;;;;;1.92;1.50;;;21.70;45.40;;;;;;5014733;28;20464;-74
2022/05/27 01:22:40;;;;;;;2.72;1.70;;;21.70;45.50;;;;;;5014058;28;20044;-74
2022/05/27 01:25:14;;;;;;;4.32;1.50;;;21.60;45.60;;;;;;5013829;28;20477;-75
2022/05/27 01:28:12;;;;;;;1.73;1.63;;;21.60;45.50;;;;;;5014056;28;20353;-75
2022/05/27 01:30:49;;;;;;;4.10;1.50;;;21.70;45.80;;;;;;5014393;28;20037;-75
2022/05/27 01:33:44;;;;;;;1.70;1.50;;;21.60;45.60;;;;;;5014023;28;20026;-74
2022/05/27 01:36:28;;;;;;;2.45;1.60;;;21.70;45.80;;;;;;5013959;28;20066;-75
2022/05/27 01:39:19;;;;;;;1.48;1.38;;;21.60;45.90;;;;;;5013958;28;20053;-74
2022/05/27 01:42:14;;;;;;;1.30;1.20;;;21.60;45.70;;;;;;5012919;28;20094;-74
2022/05/27 01:45:03;;;;;;;1.92;1.35;;;21.70;46.20;;;;;;5013461;28;20533;-74
2022/05/27 01:47:52;;;;;;;1.80;1.40;;;21.60;46.10;;;;;;5014417;28;20065;-75
2022/05/27 01:50:42;;;;;;;1.30;1.20;;;21.60;45.80;;;;;;5013603;28;20045;-75
2022/05/27 01:53:26;;;;;;;1.92;1.38;;;21.70;46.20;;;;;;5014382;28;20026;-75
2022/05/27 01:55:55;;;;;;;1.35;1.25;;;21.70;46.00;;;;;;5013584;28;20100;-75
2022/05/27 01:58:32;;;;;;;1.50;1.40;;;21.60;45.90;;;;;;5012584;28;20030;-76
2022/05/27 02:00:58;;;;;;;1.67;1.10;;;21.60;46.00;;;;;;5012508;28;20026;-76
2022/05/27 02:03:41;;;;;;;1.63;1.27;;;21.60;46.00;;;;;;5013406;28;20022;-76
2022/05/27 02:06:12;;;;;;;1.40;1.30;;;21.60;46.10;;;;;;5013848;28;20057;-76
2022/05/27 02:08:48;;;;;;;1.60;1.50;;;21.60;46.10;;;;;;5013765;28;20022;-76
2022/05/27 02:11:17;;;;;;;1.60;1.30;;;21.60;46.10;;;;;;4999631;28;20026;-76
2022/05/27 02:13:58;;;;;;;1.92;1.40;;;21.60;46.20;;;;;;5017273;28;20034;-76
2022/05/27 02:16:29;;;;;;;2.03;1.40;;;21.60;46.40;;;;;;5016456;28;20048;-76
2022/05/27 02:19:01;;;;;;;1.38;1.27;;;21.70;46.30;;;;;;5016258;28;20072;-76
2022/05/27 02:21:35;;;;;;;1.27;1.17;;;21.60;46.20;;;;;;5015872;28;20030;-77
2022/05/27 02:24:38;;;;;;;1.85;1.08;;;21.60;46.30;;;;;;5017254;28;20468;-77
2022/05/27 02:27:10;;;;;;;1.20;1.10;;;21.60;46.30;;;;;;5026128;28;20046;-76
2022/05/27 02:29:38;;;;;;;1.40;1.30;;;21.60;46.30;;;;;;5017195;28;20538;-76
2022/05/27 02:32:12;;;;;;;1.52;1.20;;;21.70;46.40;;;;;;5016895;28;20041;-74
2022/05/27 02:37:34;;;;;;;;;;;21.70;46.50;;;;;;5017542;28;20041;-75
2022/05/27 02:40:04;;;;;;;1.50;1.40;;;21.70;47.10;;;;;;5016794;28;19959;-75
2022/05/27 02:43:06;;;;;;;1.67;1.30;;;21.60;46.40;;;;;;5015722;28;20149;-75
2022/05/27 02:45:40;;;;;;;1.05;1.05;;;21.70;46.70;;;;;;5016512;28;20041;-75
2022/05/27 02:48:24;;;;;;;1.20;1.10;;;21.70;46.60;;;;;;5017579;28;20117;-75
2022/05/27 02:50:57;;;;;;;1.25;1.17;;;21.70;46.80;;;;;;5016481;28;20033;-76
2022/05/27 02:53:42;;;;;;;1.08;1.08;;;21.70;46.60;;;;;;5016322;28;20477;-77
2022/05/27 02:56:32;;;;;;;1.40;1.27;;;21.70;46.80;;;;;;5016434;28;20029;-78
2022/05/27 02:58:58;;;;;;;2.05;1.27;;;21.70;46.70;;;;;;5015236;28;20034;-78
2022/05/27 03:01:24;;;;;;;1.00;1.00;;;21.70;46.60;;;;;;5030682;28;20028;-76
2022/05/27 03:03:50;;;;;;;1.00;1.00;;;21.70;46.70;;;;;;5035841;28;20472;-76
2022/05/27 03:06:27;;;;;;;1.50;1.40;;;21.70;46.70;;;;;;5036194;28;20037;-75
2022/05/27 03:09:22;;;;;;;1.10;1.10;;;21.80;46.90;;;;;;5035867;28;20032;-75
2022/05/27 03:12:26;;;;;;;1.30;1.20;;;21.80;46.90;;;;;;5035074;28;20034;-75
2022/05/27 03:15:10;;;;;;;1.52;1.10;;;21.80;47.10;;;;;;5015992;28;20535;-76
2022/05/27 03:18:16;;;;;;;1.30;1.20;;;21.80;47.50;;;;;;5014841;28;20029;-77
2022/05/27 03:20:44;;;;;;;1.10;1.00;;;21.80;47.00;;;;;;5014784;28;20022;-77
2022/05/27 03:23:51;;;;;;;1.23;1.23;;;21.90;46.80;;;;;;5016026;28;20494;-77
2022/05/27 03:26:54;;;;;;;1.33;1.10;;;21.90;47.10;;;;;;5016037;28;20046;-77
2022/05/27 03:29:28;;;;;;;1.38;1.17;;;21.90;47.20;;;;;;5015937;28;20034;-76
2022/05/27 03:32:08;;;;;;;;;;;21.90;46.80;;;;;;5016651;28;20038;-74
2022/05/27 03:34:43;;;;;;;1.10;1.10;;;21.90;47.40;;;;;;5015613;28;19909;-77
2022/05/27 03:37:16;;;;;;;1.40;1.30;;;21.90;46.80;;;;;;5015824;28;20034;-82
2022/05/27 03:39:44;;;;;;;1.20;1.20;;;22.00;46.80;;;;;;5015851;28;20026;-76
2022/05/27 03:42:11;;;;;;;1.20;1.08;;;22.00;46.90;;;;;;5014586;28;20033;-79
2022/05/27 03:44:37;;;;;;;1.40;1.30;;;22.00;46.90;;;;;;5015413;28;20495;-77
2022/05/27 03:47:03;;;;;;;1.17;1.17;;;22.00;46.90;;;;;;5015429;28;20041;-77
2022/05/27 03:49:29;;;;;;;1.50;1.40;;;22.00;46.90;;;;;;5024523;28;20136;-77
2022/05/27 03:51:55;;;;;;;1.42;1.33;;;22.00;46.90;;;;;;5035339;28;20462;-77
2022/05/27 03:54:21;;;;;;;1.20;1.20;;;22.00;47.00;;;;;;5035108;28;20033;-78
2022/05/27 03:56:47;;;;;;;1.00;1.00;;;22.00;47.00;;;;;;5034214;28;20033;-78
2022/05/27 03:59:14;;;;;;;1.15;1.13;;;22.10;47.00;;;;;;5035108;28;20029;-77
2022/05/27 04:01:43;;;;;;;1.23;1.13;;;22.10;47.00;;;;;;5034932;28;20426;-77
2022/05/27 04:04:12;;;;;;;1.13;1.10;;;22.10;47.00;;;;;;5033763;28;20051;-77
2022/05/27 04:06:38;;;;;;;1.40;1.30;;;22.20;47.00;;;;;;5034980;28;20036;-78
2022/05/27 04:09:05;;;;;;;0.95;0.95;;;22.20;47.00;;;;;;5034751;28;20033;-77
2022/05/27 04:11:31;;;;;;;1.40;1.30;;;22.20;46.90;;;;;;5034808;28;20028;-78
2022/05/27 04:13:57;;;;;;;1.23;1.10;;;22.30;47.00;;;;;;5034783;28;20030;-77
2022/05/27 04:16:24;;;;;;;1.30;1.20;;;22.30;46.90;;;;;;5033631;28;20033;-76
2022/05/27 04:18:50;;;;;;;1.73;1.25;;;22.30;46.90;;;;;;5032129;28;20033;-77
2022/05/27 04:21:16;;;;;;;1.58;1.25;;;22.40;46.90;;;;;;5015780;28;20088;-75
2022/05/27 04:23:42;;;;;;;1.08;1.00;;;22.40;46.90;;;;;;5014011;28;20076;-76
2022/05/27 04:26:08;;;;;;;1.10;1.00;;;22.30;46.80;;;;;;5030795;28;20424;-75
2022/05/27 04:28:34;;;;;;;1.20;1.10;;;22.40;46.80;;;;;;5027301;28;20029;-76
2022/05/27 04:31:02;;;;;;;1.30;1.15;;;22.40;46.90;;;;;;5031853;28;20068;-77
2022/05/27 04:33:27;;;;;;;1.38;1.27;;;22.30;46.80;;;;;;5031289;28;20116;-76
2022/05/27 04:35:55;;;;;;;1.08;1.08;;;22.30;46.80;;;;;;5031323;28;20568;-75
2022/05/27 04:38:22;;;;;;;2.13;1.20;;;22.30;46.90;;;;;;5031337;28;20116;-75
2022/05/27 04:40:48;;;;;;;1.45;1.15;;;22.30;46.90;;;;;;5032019;28;20018;-75
2022/05/27 04:43:14;;;;;;;1.42;1.10;;;22.30;46.90;;;;;;5033636;28;20396;-76
2022/05/27 04:45:40;;;;;;;1.85;1.20;;;22.30;46.90;;;;;;5029550;28;20109;-77
2022/05/27 04:48:07;;;;;;;1.17;1.10;;;22.40;47.00;;;;;;5013159;28;20490;-75
2022/05/27 04:50:32;;;;;;;0.90;0.90;;;22.40;46.90;;;;;;5016058;28;20070;-75
2022/05/27 04:52:58;;;;;;;0.98;0.98;;;22.40;46.90;;;;;;5027024;28;20030;-76
2022/05/27 04:55:24;;;;;;;1.48;1.20;;;22.40;46.80;;;;;;5016413;28;20040;-76
2022/05/27 04:57:53;;;;;;;0.90;0.90;;;22.50;46.90;;;;;;5029471;28;20032;-77
2022/05/27 05:00:22;;;;;;;0.95;0.95;;;22.50;46.80;;;;;;5027880;28;20033;-76
2022/05/27 05:02:48;;;;;;;1.30;1.20;;;22.50;46.80;;;;;;5018353;28;20042;-75
2022/05/27 05:05:16;;;;;;;1.30;1.20;;;22.50;46.80;;;;;;5031678;28;20034;-75
2022/05/27 05:07:45;;;;;;;1.00;1.00;;;22.50;46.80;;;;;;5018193;28;20037;-75
2022/05/27 05:10:14;;;;;;;1.23;1.13;;;22.50;46.80;;;;;;5012846;28;20036;-75
2022/05/27 05:12:39;;;;;;;2.20;1.10;;;22.50;46.90;;;;;;5014789;28;20040;-76
2022/05/27 05:15:06;;;;;;;1.25;1.15;;;22.50;46.90;;;;;;5014745;28;20045;-76
2022/05/27 05:17:31;;;;;;;1.65;1.25;;;22.50;46.80;;;;;;5033030;28;20101;-76
2022/05/27 05:19:57;;;;;;;1.20;1.10;;;22.50;46.80;;;;;;5013861;28;20054;-77
2022/05/27 05:22:24;;;;;;;1.17;1.08;;;22.50;46.90;;;;;;5014984;28;20021;-75
2022/05/27 05:24:54;;;;;;;1.05;1.00;;;22.50;46.90;;;;;;5022925;28;20068;-76
2022/05/27 05:27:21;;;;;;;1.20;1.10;;;22.60;47.20;;;;;;5026220;28;20058;-75
2022/05/27 05:29:47;;;;;;;1.13;1.08;;;22.50;46.90;;;;;;5016581;28;20483;-76
2022/05/27 05:32:12;;;;;;;1.00;0.90;;;22.50;46.90;;;;;;5021551;28;20033;-75
2022/05/27 05:34:38;;;;;;;1.15;1.05;;;22.60;47.00;;;;;;5015697;28;20034;-76
2022/05/27 05:37:04;;;;;;;1.08;1.05;;;22.60;47.00;;;;;;5014943;28;20083;-76
2022/05/27 05:39:30;;;;;;;1.40;1.30;;;22.60;47.00;;;;;;5028660;28;20030;-75
2022/05/27 05:42:01;;;;;;;1.23;1.20;;;22.50;47.00;;;;;;5029106;28;20472;-75
2022/05/27 05:44:27;;;;;;;1.52;1.13;;;22.50;47.00;;;;;;5016777;28;20032;-76
2022/05/27 05:46:53;;;;;;;1.08;1.02;;;22.60;47.70;;;;;;5019775;28;20380;-76
2022/05/27 05:49:19;;;;;;;1.50;1.40;;;22.60;47.00;;;;;;5030805;28;20037;-76
2022/05/27 05:51:45;;;;;;;1.15;1.05;;;22.60;47.10;;;;;;5037620;28;20078;-76
2022/05/27 05:54:11;;;;;;;1.30;1.20;;;22.60;47.10;;;;;;5035844;28;20525;-76
2022/05/27 05:56:37;;;;;;;1.27;1.17;;;22.60;47.10;;;;;;5036972;28;20030;-75
2022/05/27 05:59:04;;;;;;;1.92;1.10;;;22.60;47.10;;;;;;5037277;28;20037;-75
2022/05/27 06:01:29;;;;;;;1.08;1.00;;;22.60;47.00;;;;;;5037013;28;20025;-75
2022/05/27 06:03:55;;;;;;;1.98;1.10;;;22.60;47.10;;;;;;5037465;28;20349;-76
2022/05/27 06:06:21;;;;;;;1.35;1.10;;;22.60;47.00;;;;;;5035742;28;20025;-75
2022/05/27 06:08:47;;;;;;;1.17;1.13;;;22.60;47.10;;;;;;5037288;28;20468;-75
2022/05/27 06:11:13;;;;;;;1.10;1.00;;;22.60;47.10;;;;;;5037293;28;20037;-76
2022/05/27 06:13:41;;;;;;;1.45;1.27;;;22.60;47.10;;;;;;5036958;28;20022;-76
2022/05/27 06:16:09;;;;;;;2.63;1.30;;;22.60;47.00;;;;;;5035496;28;20034;-76
2022/05/27 06:18:35;;;;;;;1.85;1.30;;;22.60;47.10;;;;;;5036810;28;20379;-76
2022/05/27 06:21:02;;;;;;;0.90;0.90;;;22.70;47.10;;;;;;5036845;28;20026;-76
2022/05/27 06:23:28;;;;;;;1.20;1.10;;;22.70;47.10;;;;;;5036596;28;20068;-74
2022/05/27 06:25:57;;;;;;;2.22;1.10;;;22.70;47.10;;;;;;5036418;28;20371;-74
2022/05/27 06:36:36;;;;;;;1.13;1.02;;;22.70;47.00;;;;;;5036559;28;20508;-75
2022/05/27 06:39:04;;;;;;;1.08;0.98;;;22.70;47.00;;;;;;5036526;28;20091;-75
2022/05/27 06:41:30;;;;;;;1.23;1.20;;;22.70;47.00;;;;;;5036349;28;20036;-76
2022/05/27 06:43:55;;;;;;;1.48;1.13;;;22.70;47.00;;;;;;5051624;28;20029;-75
2022/05/27 06:46:21;;;;;;;1.20;1.10;;;22.70;47.00;;;;;;5036774;28;20036;-75
2022/05/27 06:48:48;;;;;;;1.50;1.02;;;22.70;47.00;;;;;;5035027;28;20107;-75
2022/05/27 06:51:14;;;;;;;1.20;1.10;;;22.70;47.00;;;;;;5036386;28;20056;-75
2022/05/27 06:53:39;;;;;;;1.48;0.85;;;22.70;47.00;;;;;;5035048;28;20537;-75
2022/05/27 06:56:07;;;;;;;1.10;1.10;;;22.70;47.00;;;;;;5035195;28;20080;-76
2022/05/27 06:58:33;;;;;;;0.90;0.90;;;22.70;47.00;;;;;;5036149;28;20025;-75
2022/05/27 07:00:59;;;;;;;1.00;1.00;;;22.70;47.00;;;;;;5034864;28;20029;-76
2022/05/27 07:03:25;;;;;;;1.17;1.00;;;22.70;47.00;;;;;;5034427;28;20032;-76
2022/05/27 07:05:51;;;;;;;1.02;1.02;;;22.80;47.00;;;;;;5035998;28;20027;-75
2022/05/27 07:08:17;;;;;;;2.25;1.20;;;22.70;46.90;;;;;;5034762;28;20030;-75
2022/05/27 07:10:43;;;;;;;1.20;1.00;;;22.80;46.90;;;;;;5035717;28;20072;-76
2022/05/27 07:13:09;;;;;;;0.85;0.85;;;22.80;46.90;;;;;;5036422;28;20428;-76
2022/05/27 07:15:35;;;;;;;0.90;0.88;;;22.80;47.50;;;;;;5035572;28;20099;-77
2022/05/27 07:18:06;;;;;;;1.00;0.90;;;22.80;46.80;;;;;;5035553;28;20030;-76
2022/05/27 07:20:32;;;;;;;1.02;0.90;;;22.80;46.80;;;;;;5035785;28;20071;-75
2022/05/27 07:22:58;;;;;;;1.10;0.95;;;22.80;46.80;;;;;;5034436;28;20120;-77
2022/05/27 07:25:24;;;;;;;1.73;1.00;;;22.90;46.80;;;;;;5034445;28;20113;-74
2022/05/27 07:27:50;;;;;;;1.20;1.10;;;22.90;46.80;;;;;;5035435;28;20080;-76
2022/05/27 07:30:15;;;;;;;0.77;0.77;;;22.90;46.70;;;;;;5035767;28;20025;-77
2022/05/27 07:32:43;;;;;;;1.05;0.90;;;22.90;46.60;;;;;;5035347;28;20068;-75
2022/05/27 07:35:09;;;;;;;0.98;0.90;;;23.00;46.60;;;;;;5035465;28;20072;-76
2022/05/27 07:37:35;;;;;;;0.93;0.80;;;23.00;46.50;;;;;;5027869;28;20029;-77
2022/05/27 07:40:02;;;;;;;1.05;0.85;;;23.10;46.50;;;;;;5017828;28;20033;-75
2022/05/27 07:42:27;;;;;;;1.52;0.77;;;23.10;46.40;;;;;;5014475;28;20057;-75
2022/05/27 07:44:53;;;;;;;1.08;0.82;;;23.20;46.30;;;;;;5016145;28;20467;-78
2022/05/27 07:47:19;;;;;;;1.00;0.90;;;23.20;46.30;;;;;;5035184;28;20029;-77
2022/05/27 07:49:45;;;;;;;1.27;1.10;;;23.30;46.30;;;;;;5030305;28;20025;-71
2022/05/27 07:52:11;;;;;;;1.25;0.95;;;23.30;46.20;;;;;;5023914;28;20041;-70
2022/05/27 07:54:36;;;;;;;3.10;1.05;;;23.30;46.10;;;;;;5024865;28;20037;-75
2022/05/27 07:57:23;;;;;;;1.08;1.00;;;23.30;46.00;;;;;;5023062;28;20117;-76
2022/05/27 08:00:09;;;;;;;3.03;1.10;;;23.30;45.90;;;;;;5033811;28;20021;-74
2022/05/27 08:02:35;;;;;;;1.45;1.10;;;23.30;45.90;;;;;;5034939;28;20041;-75
2022/05/27 08:05:00;;;;;;;3.60;1.10;;;23.20;45.70;;;;;;5033991;28;20124;-74
2022/05/27 08:07:26;;;;;;;1.30;1.20;;;23.10;45.70;;;;;;5033828;28;20025;-74
2022/05/27 08:09:52;;;;;;;1.60;1.10;;;23.20;45.70;;;;;;5034596;28;20029;-73
2022/05/27 08:12:18;;;;;;;1.15;1.05;;;23.10;45.60;;;;;;5026992;28;20468;-75
2022/05/27 08:14:44;;;;;;;5.63;1.17;;;23.10;45.50;;;;;;5025416;28;20049;-75
2022/05/27 08:17:19;;;;;;;1.30;1.17;;;23.10;45.60;;;;;;5016071;28;20026;-75
2022/05/27 08:19:45;;;;;;;1.60;1.23;;;23.10;45.50;;;;;;5030266;28;20033;-75
2022/05/27 08:22:53;;;;;;;1.95;1.23;;;23.10;45.60;;;;;;5032129;28;20091;-75
2022/05/27 08:25:21;;;;;;;0.90;0.90;;;23.10;45.50;;;;;;5015080;28;20065;-75
2022/05/27 08:27:47;;;;;;;1.48;1.25;;;23.20;45.50;;;;;;5032021;28;20055;-75
2022/05/27 08:30:15;;;;;;;1.02;0.88;;;23.20;45.40;;;;;;5032065;28;20030;-75
2022/05/27 08:32:41;;;;;;;1.08;0.98;;;23.20;45.30;;;;;;5032053;28;20029;-75
2022/05/27 08:38:05;;;;;;;0.98;0.98;;;23.20;45.20;;;;;;5032590;28;20045;-73
2022/05/27 08:40:54;;;;;;;0.88;0.88;;;23.20;45.20;;;;;;5015552;28;20033;-73
2022/05/27 08:43:40;;;;;;;1.23;0.90;;;23.20;45.10;;;;;;5032013;28;20103;-73
2022/05/27 08:46:28;;;;;;;1.02;0.93;;;23.20;45.10;;;;;;4995393;28;20049;-73
2022/05/27 08:48:58;;;;;;;3.42;1.00;;;23.30;45.10;;;;;;5031733;28;20537;-73
2022/05/27 08:51:30;;;;;;;1.88;1.10;;;23.30;45.10;;;;;;5031908;28;20056;-73
2022/05/27 08:54:02;;;;;;;1.13;1.02;;;23.30;45.10;;;;;;5031986;28;21098;-73
2022/05/27 08:59:46;;;;;;;0.90;0.90;;;23.40;45.00;;;;;;5014586;28;20041;-74
2022/05/27 09:02:38;;;;;;;1.00;0.90;;;23.50;44.30;;;;;;5012865;28;20040;-73
2022/05/27 09:05:16;;;;;;;1.10;0.73;;;23.50;44.70;;;;;;5013978;28;20029;-72
2022/05/27 09:08:01;;;;;;;2.03;1.00;;;23.50;44.80;;;;;;5013909;28;20030;-74
2022/05/27 09:10:34;;;;;;;1.50;1.00;;;23.50;44.60;;;;;;5013644;28;20057;-74
2022/05/27 09:13:09;;;;;;;0.80;0.80;;;23.50;44.70;;;;;;5013968;28;20026;-74
2022/05/27 09:15:59;;;;;;;1.23;1.05;;;23.60;44.70;;;;;;5014073;28;20022;-73
2022/05/27 09:19:01;;;;;;;1.10;1.00;;;23.70;44.60;;;;;;5013636;28;20030;-73
2022/05/27 09:21:35;;;;;;;0.93;0.93;;;23.70;44.40;;;;;;5014257;28;20022;-74
2022/05/27 09:24:17;;;;;;;2.33;0.90;;;23.80;44.50;;;;;;5013526;28;20109;-72
2022/05/27 09:26:51;;;;;;;2.38;1.00;;;23.90;44.50;;;;;;5013615;28;20081;-73
2022/05/27 09:29:50;;;;;;;1.00;0.90;;;23.90;44.30;;;;;;5013572;28;20049;-72
2022/05/27 09:32:21;;;;;;;0.80;0.80;;;24.00;44.10;;;;;;5013735;28;20088;-72
2022/05/27 09:34:49;;;;;;;1.02;0.90;;;24.10;44.20;;;;;;5013458;28;20065;-74
2022/05/27 09:37:24;;;;;;;1.10;0.98;;;24.20;44.10;;;;;;5013797;28;20058;-73
2022/05/27 09:39:53;;;;;;;1.70;1.00;;;24.20;44.10;;;;;;5013826;28;20029;-74
2022/05/27 09:42:24;;;;;;;1.50;1.02;;;24.30;44.00;;;;;;5012487;28;20029;-73
2022/05/27 09:44:53;;;;;;;1.17;1.08;;;24.30;44.00;;;;;;5013763;28;20038;-73
2022/05/27 09:47:21;;;;;;;1.15;1.00;;;24.40;43.90;;;;;;5012268;28;20083;-73
2022/05/27 09:49:58;;;;;;;0.80;0.80;;;24.50;43.80;;;;;;5013476;28;20037;-74
2022/05/27 09:52:27;;;;;;;1.00;0.90;;;24.50;43.80;;;;;;5012626;28;20117;-73
2022/05/27 09:54:59;;;;;;;0.80;0.80;;;24.60;43.70;;;;;;5013649;28;20468;-73
2022/05/27 09:57:32;;;;;;;1.38;1.13;;;24.60;43.60;;;;;;5013650;28;20113;-73
2022/05/27 10:00:04;;;;;;;1.10;0.70;;;24.70;43.60;;;;;;5012249;28;20384;-73
2022/05/27 10:02:36;;;;;;;0.80;0.80;;;24.80;43.50;;;;;;5011751;28;20030;-73
2022/05/27 10:05:05;;;;;;;0.70;0.70;;;24.80;43.40;;;;;;5013215;28;20381;-73
2022/05/27 10:07:35;;;;;;;0.90;0.90;;;24.90;43.40;;;;;;5011987;28;20140;-74
2022/05/27 10:10:29;;;;;;;1.00;1.00;;;24.90;43.40;;;;;;5012338;28;20034;-73
2022/05/27 10:12:56;;;;;;;1.58;1.00;;;25.00;43.20;;;;;;5013271;28;20591;-74
2022/05/27 10:15:29;;;;;;;1.15;0.90;;;25.10;43.30;;;;;;5013542;28;20531;-73
2022/05/27 10:18:13;;;;;;;1.00;0.90;;;25.10;43.20;;;;;;5011968;28;20026;-74
2022/05/27 10:20:39;;;;;;;1.17;1.10;;;25.10;43.00;;;;;;5012087;28;20547;-73
2022/05/27 10:23:10;;;;;;;0.80;0.80;;;25.00;43.00;;;;;;5012895;28;20101;-73
2022/05/27 10:25:43;;;;;;;2.47;1.00;;;24.90;43.00;;;;;;5011690;28;20041;-73
2022/05/27 10:28:21;;;;;;;1.95;1.10;;;24.90;43.00;;;;;;5011752;28;20057;-72
2022/05/27 10:31:01;;;;;;;0.77;0.77;;;24.80;43.10;;;;;;5013500;28;20112;-72
2022/05/27 10:33:47;;;;;;;0.93;0.90;;;24.70;43.00;;;;;;5016603;28;20029;-74
2022/05/27 10:36:35;;;;;;;1.35;1.13;;;24.70;43.10;;;;;;5015591;28;20025;-73
2022/05/27 10:39:08;;;;;;;1.38;0.95;;;24.60;43.10;;;;;;5015536;28;20460;-73
2022/05/27 10:41:53;;;;;;;0.70;0.70;;;24.60;43.20;;;;;;5015054;28;20030;-72
2022/05/27 10:44:24;;;;;;;;;;;24.60;43.20;;;;;;5016803;28;20030;-73
2022/05/27 10:46:55;;;;;;;0.88;0.80;;;24.50;43.10;;;;;;4999283;28;19914;-74
2022/05/27 10:49:36;;;;;;;1.00;1.00;;;24.50;43.20;;;;;;5016519;28;20041;-73
2022/05/27 10:52:35;;;;;;;1.75;1.00;;;24.50;43.20;;;;;;5016250;28;20428;-73
2022/05/27 10:55:18;;;;;;;2.67;0.85;;;24.50;43.10;;;;;;5016470;28;20030;-74
2022/05/27 11:03:53;;;;;;;1.00;0.88;;;24.40;43.30;;;;;;5016595;28;20480;-72
2022/05/27 11:06:46;;;;;;;1.10;1.00;;;24.40;43.30;;;;;;5016914;28;20034;-73
2022/05/27 11:09:25;;;;;;;0.95;0.90;;;24.40;43.30;;;;;;5014655;28;20030;-72
2022/05/27 11:12:10;;;;;;;0.85;0.70;;;24.50;43.30;;;;;;5016541;28;20452;-73
2022/05/27 11:15:12;;;;;;;1.27;0.90;;;24.60;43.30;;;;;;5016117;28;20029;-72
2022/05/27 11:18:03;;;;;;;1.45;0.90;;;24.70;43.30;;;;;;5015800;28;20034;-73
2022/05/27 11:20:46;;;;;;;0.90;0.90;;;24.70;43.10;;;;;;5016210;28;20034;-74
2022/05/27 11:23:39;;;;;;;0.60;0.60;;;24.80;43.10;;;;;;5015983;28;20109;-74
2022/05/27 11:26:22;;;;;;;1.63;0.90;;;24.90;43.10;;;;;;5015465;28;20107;-72
2022/05/27 11:29:28;;;;;;;0.80;0.80;;;24.90;43.10;;;;;;5015691;28;20029;-72
2022/05/27 11:32:27;;;;;;;1.10;0.73;;;25.00;43.00;;;;;;5015937;28;20250;-73
2022/05/27 11:35:05;;;;;;;1.88;1.00;;;25.00;42.90;;;;;;5015699;28;20579;-72
2022/05/27 11:38:00;;;;;;;1.15;1.00;;;25.10;42.90;;;;;;5015689;28;20431;-74
2022/05/27 11:40:43;;;;;;;0.90;0.90;;;25.10;42.80;;;;;;5015471;28;20044;-74
2022/05/27 11:43:23;;;;;;;1.45;1.27;;;25.10;42.90;;;;;;5014163;28;20034;-74
2022/05/27 11:46:22;;;;;;;0.80;0.80;;;25.00;42.80;;;;;;5015804;28;20029;-73
2022/05/27 11:49:00;;;;;;;0.70;0.70;;;25.00;42.80;;;;;;5015273;28;20034;-72
2022/05/27 11:52:03;;;;;;;1.25;1.10;;;25.10;42.90;;;;;;5014555;28;20030;-74
2022/05/27 11:55:06;;;;;;;2.45;1.00;;;25.10;42.80;;;;;;5013591;28;20042;-74
2022/05/27 11:57:48;;;;;;;1.67;0.90;;;25.20;42.90;;;;;;5015618;28;20034;-74
2022/05/27 12:00:18;;;;;;;0.85;0.85;;;25.20;42.80;;;;;;5014567;28;20476;-73
2022/05/27 12:03:16;;;;;;;1.13;0.90;;;25.30;42.80;;;;;;5015270;28;20030;-73
2022/05/27 12:05:56;;;;;;;0.77;0.77;;;25.30;42.70;;;;;;5030519;28;20120;-73
2022/05/27 12:08:21;;;;;;;0.93;0.93;;;25.30;42.60;;;;;;5013928;28;20513;-73
2022/05/27 12:10:52;;;;;;;2.00;0.90;;;25.30;42.60;;;;;;5015426;28;20064;-72
2022/05/27 12:13:19;;;;;;;0.98;0.98;;;25.30;42.60;;;;;;5013977;28;20095;-74
2022/05/27 12:16:00;;;;;;;1.27;0.80;;;25.10;42.50;;;;;;5014922;28;20042;-74
2022/05/27 12:18:32;;;;;;;1.00;1.00;;;25.20;42.60;;;;;;5013728;28;20479;-74
2022/05/27 12:21:00;;;;;;;0.85;0.80;;;25.10;42.60;;;;;;5014855;28;20465;-74
2022/05/27 12:23:28;;;;;;;0.90;0.90;;;25.00;42.70;;;;;;4997334;28;20065;-73
2022/05/27 12:25:59;;;;;;;1.10;1.00;;;24.90;42.70;;;;;;5013384;28;20419;-74
2022/05/27 12:28:34;;;;;;;0.70;0.70;;;24.90;42.90;;;;;;5013583;28;20084;-74
2022/05/27 12:31:01;;;;;;;0.80;0.80;;;24.80;42.90;;;;;;5015054;28;20037;-73
2022/05/27 12:33:29;;;;;;;1.55;0.88;;;24.80;42.90;;;;;;5013493;28;20026;-73
2022/05/27 12:36:13;;;;;;;0.88;0.88;;;24.80;43.00;;;;;;5013358;28;20080;-73
2022/05/27 12:38:47;;;;;;;1.50;0.90;;;24.80;43.00;;;;;;5013170;28;20030;-74
2022/05/27 12:41:30;;;;;;;0.90;0.90;;;24.80;43.00;;;;;;5013346;28;20479;-73
2022/05/27 12:44:02;;;;;;;0.90;0.90;;;24.80;43.00;;;;;;5014456;28;20033;-73
2022/05/27 12:46:30;;;;;;;0.93;0.90;;;24.90;43.00;;;;;;4997849;28;20119;-74
2022/05/27 12:49:24;;;;;;;0.82;0.80;;;24.90;43.00;;;;;;5013124;28;20074;-75
2022/05/27 12:51:50;;;;;;;0.95;0.90;;;25.00;42.90;;;;;;5013432;28;20053;-72
2022/05/27 12:54:48;;;;;;;1.05;0.88;;;25.00;42.90;;;;;;5013773;28;20161;-73
2022/05/27 13:03:33;;;;;;;1.15;1.05;;;25.00;42.80;;;;;;5014155;28;20045;-73
2022/05/27 13:06:12;;;;;;;0.77;0.77;;;25.00;42.80;;;;;;5014185;28;20121;-73
2022/05/27 13:09:00;;;;;;;1.00;1.00;;;25.00;42.80;;;;;;5012856;28;20030;-74
2022/05/27 13:11:37;;;;;;;1.48;1.10;;;25.00;42.80;;;;;;5012780;28;20022;-74
2022/05/27 13:14:05;;;;;;;0.88;0.88;;;25.10;42.90;;;;;;5014157;28;20114;-74
2022/05/27 13:16:43;;;;;;;0.88;0.88;;;25.10;42.90;;;;;;5014080;28;20044;-73
2022/05/27 13:19:19;;;;;;;1.00;0.90;;;25.20;42.80;;;;;;5014066;28;20033;-73
2022/05/27 13:21:52;;;;;;;1.02;0.88;;;25.40;42.80;;;;;;5014083;28;20033;-74
2022/05/27 13:24:18;;;;;;;0.95;0.95;;;25.30;42.60;;;;;;5014304;28;20030;-73
2022/05/27 13:26:44;;;;;;;0.90;0.90;;;25.40;42.70;;;;;;5012108;28;20058;-73
2022/05/27 13:29:25;;;;;;;0.88;0.88;;;25.30;42.60;;;;;;5013849;28;20025;-73
2022/05/27 13:32:03;;;;;;;1.17;1.02;;;25.30;42.70;;;;;;5013990;28;20026;-73
2022/05/27 13:34:32;;;;;;;1.90;1.10;;;25.40;42.90;;;;;;5012682;28;20029;-74
2022/05/27 13:37:04;;;;;;;1.35;1.10;;;25.50;42.80;;;;;;5012187;28;20080;-75
2022/05/27 13:40:15;;;;;;;1.20;1.02;;;25.50;42.60;;;;;;5012971;28;20084;-74
2022/05/27 13:42:52;;;;;;;0.70;0.70;;;25.60;42.50;;;;;;5031053;28;20125;-74
2022/05/27 13:45:46;;;;;;;0.80;0.80;;;25.60;42.50;;;;;;5014542;28;20380;-74
2022/05/27 13:48:30;;;;;;;1.00;1.00;;;25.70;42.60;;;;;;5013682;28;20077;-73
2022/05/27 13:51:10;;;;;;;;;;;25.80;42.40;;;;;;5012559;28;20030;-72
2022/05/27 13:53:38;;;;;;;1.13;1.08;;;25.80;42.10;;;;;;5012231;28;19996;-75
2022/05/27 13:56:09;;;;;;;1.15;1.02;;;26.00;42.30;;;;;;5012262;28;20029;-73